Dades meteomassalio
Diari Summary for Octubre 19, 2017 Units:  Metric    English   Both
« Previous Day
Next Day »
Diari Semanal Mensual Anual Personalitzat
  Maxima: Minima: Mijana:
Temperatura: 16.7 °C 8.3 °C 13.2 °C
Rosada: 11.4 °C 5.4 °C 9.1 °C
Humitat: 92 % 65 % 77 %
Velocitat del vent: 27.8 km/h 0.0 km/h 9 km/h
Racha vent: 27.8 km/h - -
Vent:- - SW
Pressio: 1015.8 hPa 1012.4 hPa -
Pluja: 0.0 mm    
Historical Graphs
 
 
Tabular Data for Octubre 19, 2017
Time Temperature Dew Point Pressure Wind Wind Speed Wind Gust Humidity Rainfall Rate (Hourly) solar Conditions
00:00 13.3 °C 11.4 °C 1013.1 hPa Calm     88 % 0.0 mm 0.0 W/m2 CLR
00:05 13.3 °C 11.4 °C 1013.1 hPa Calm     88 % 0.0 mm 0.0 W/m2 RA
00:10 12.8 °C 10.8 °C 1013.1 hPa Calm     88 % 0.0 mm 0.0 W/m2 CLR
00:15 12.8 °C 10.8 °C 1013.1 hPa Calm     88 % 0.0 mm 0.0 W/m2 CLR
00:20 12.8 °C 11.0 °C 1012.8 hPa Calm     89 % 0.0 mm 0.0 W/m2 CLR
00:25 12.2 °C 10.4 °C 1013.1 hPa Calm     89 % 0.0 mm 0.0 W/m2 CLR
00:30 12.2 °C 10.4 °C 1013.1 hPa Calm     89 % 0.0 mm 0.0 W/m2 CLR
00:35 12.2 °C 10.6 °C 1013.1 hPa Calm     90 % 0.0 mm 0.0 W/m2 CLR
00:40 12.2 °C 10.6 °C 1012.8 hPa Calm     90 % 0.0 mm 0.0 W/m2 CLR
00:45 12.2 °C 10.6 °C 1012.8 hPa Calm     90 % 0.0 mm 0.0 W/m2 CLR
00:55 11.7 °C 10.1 °C 1012.8 hPa Calm     90 % 0.0 mm 0.0 W/m2 CLR
01:00 11.7 °C 10.1 °C 1012.8 hPa Calm     90 % 0.0 mm 0.0 W/m2 CLR
01:05 11.7 °C 10.2 °C 1012.8 hPa Calm     91 % 0.0 mm 0.0 W/m2 CLR
01:10 11.7 °C 10.2 °C 1012.8 hPa Calm     91 % 0.0 mm 0.0 W/m2 CLR
01:15 11.7 °C 10.2 °C 1012.8 hPa Calm     91 % 0.0 mm 0.0 W/m2 CLR
01:20 11.7 °C 10.2 °C 1013.1 hPa Calm     91 % 0.0 mm 0.0 W/m2 CLR
01:25 11.7 °C 10.2 °C 1013.1 hPa Calm     91 % 0.0 mm 0.0 W/m2 CLR
01:30 11.7 °C 10.2 °C 1013.1 hPa Calm     91 % 0.0 mm 0.0 W/m2 CLR
01:35 11.1 °C 9.7 °C 1013.1 hPa Calm     91 % 0.0 mm 0.0 W/m2 CLR
01:40 11.1 °C 9.8 °C 1013.1 hPa Calm     92 % 0.0 mm 0.0 W/m2 CLR
01:45 11.1 °C 9.8 °C 1013.1 hPa Calm     92 % 0.0 mm 0.0 W/m2 CLR
01:50 11.1 °C 9.8 °C 1013.1 hPa Calm     92 % 0.0 mm 0.0 W/m2 CLR
01:55 11.1 °C 9.8 °C 1013.1 hPa Calm     92 % 0.0 mm 0.0 W/m2 CLR
02:00 11.1 °C 9.8 °C 1013.1 hPa Calm     92 % 0.0 mm 0.0 W/m2 CLR
02:05 11.1 °C 9.8 °C 1013.1 hPa Calm     92 % 0.0 mm 0.0 W/m2 CLR
02:10 11.1 °C 9.8 °C 1013.1 hPa Calm     92 % 0.0 mm 0.0 W/m2 CLR
02:15 11.1 °C 9.8 °C 1013.1 hPa Calm     92 % 0.0 mm 0.0 W/m2 CLR
02:20 11.1 °C 9.7 °C 1013.1 hPa Calm     91 % 0.0 mm 0.0 W/m2 CLR
02:25 11.1 °C 9.8 °C 1013.1 hPa Calm     92 % 0.0 mm 0.0 W/m2 CLR
02:30 11.1 °C 9.8 °C 1013.1 hPa Calm     92 % 0.0 mm 0.0 W/m2 CLR
02:35 11.1 °C 9.8 °C 1013.1 hPa Calm     92 % 0.0 mm 0.0 W/m2 CLR
02:40 11.1 °C 9.8 °C 1013.1 hPa Calm     92 % 0.0 mm 0.0 W/m2 CLR
02:45 10.6 °C 9.3 °C 1013.4 hPa Calm     92 % 0.0 mm 0.0 W/m2 CLR
02:50 10.6 °C 9.3 °C 1013.1 hPa Calm     92 % 0.0 mm 0.0 W/m2 CLR
02:55 10.6 °C 9.3 °C 1013.1 hPa Calm     92 % 0.0 mm 0.0 W/m2 CLR
03:00 10.6 °C 9.2 °C 1013.4 hPa Calm     91 % 0.0 mm 0.0 W/m2 CLR
03:05 10.6 °C 9.2 °C 1013.4 hPa Calm     91 % 0.0 mm 0.0 W/m2 CLR
03:10 10.6 °C 8.8 °C 1013.4 hPa Calm     89 % 0.0 mm 0.0 W/m2 CLR
03:15 10.6 °C 8.8 °C 1013.8 hPa Calm     89 % 0.0 mm 0.0 W/m2 CLR
03:20 10.6 °C 8.7 °C 1013.8 hPa Calm     88 % 0.0 mm 0.0 W/m2 CLR
03:25 10.6 °C 8.3 °C 1013.8 hPa Calm     86 % 0.0 mm 0.0 W/m2 CLR
03:30 10.6 °C 8.1 °C 1013.4 hPa Calm     85 % 0.0 mm 0.0 W/m2 CLR
03:35 10.6 °C 8.1 °C 1013.4 hPa Calm     85 % 0.0 mm 0.0 W/m2 CLR
03:40 10.6 °C 7.9 °C 1013.4 hPa Calm     84 % 0.0 mm 0.0 W/m2 CLR
03:45 10.6 °C 7.9 °C 1013.4 hPa Calm     84 % 0.0 mm 0.0 W/m2 CLR
03:50 10.6 °C 8.1 °C 1013.8 hPa Calm     85 % 0.0 mm 0.0 W/m2 CLR
03:55 10.6 °C 8.3 °C 1013.8 hPa Calm     86 % 0.0 mm 0.0 W/m2 CLR
04:00 10.6 °C 8.3 °C 1013.8 hPa Calm     86 % 0.0 mm 0.0 W/m2 CLR
04:05 10.6 °C 8.5 °C 1013.8 hPa Calm     87 % 0.0 mm 0.0 W/m2 CLR
04:10 10.6 °C 8.3 °C 1013.4 hPa Calm     86 % 0.0 mm 0.0 W/m2 CLR
04:15 10.6 °C 8.3 °C 1013.4 hPa Calm     86 % 0.0 mm 0.0 W/m2 CLR
04:20 11.1 °C 8.8 °C 1013.4 hPa Calm     86 % 0.0 mm 0.0 W/m2 CLR
04:25 11.1 °C 8.3 °C 1013.4 hPa Calm     83 % 0.0 mm 0.0 W/m2 CLR
04:30 11.1 °C 8.2 °C 1013.4 hPa Calm     82 % 0.0 mm 0.0 W/m2 CLR
04:35 10.6 °C 7.4 °C 1013.4 hPa SSE 4.8 km/h 4.8 km/h 81 % 0.0 mm 0.0 W/m2 CLR
04:40 11.1 °C 8.3 °C 1013.1 hPa SSE 7.4 km/h 7.4 km/h 83 % 0.0 mm 0.0 W/m2 CLR
04:45 11.1 °C 8.5 °C 1013.4 hPa Calm     84 % 0.0 mm 0.0 W/m2 CLR
04:50 11.1 °C 8.5 °C 1013.1 hPa SSE 9.3 km/h 9.3 km/h 84 % 0.0 mm 0.0 W/m2 CLR
04:55 11.1 °C 8.5 °C 1013.1 hPa SSE 9.3 km/h 9.3 km/h 84 % 0.0 mm 0.0 W/m2 CLR
05:00 11.1 °C 8.5 °C 1013.1 hPa South 6.4 km/h 6.4 km/h 84 % 0.0 mm 0.0 W/m2 CLR
05:05 11.1 °C 8.5 °C 1013.1 hPa Calm     84 % 0.0 mm 0.0 W/m2 CLR
05:10 10.6 °C 7.9 °C 1013.1 hPa Calm     84 % 0.0 mm 0.0 W/m2 CLR
05:16 10.6 °C 7.8 °C 1012.8 hPa Calm     83 % 0.0 mm 0.0 W/m2 CLR
05:20 10.0 °C 7.2 °C 1013.1 hPa Calm     83 % 0.0 mm 0.0 W/m2 CLR
05:25 10.0 °C 7.4 °C 1012.8 hPa Calm     84 % 0.0 mm 0.0 W/m2 CLR
05:26 10.0 °C 7.4 °C 1012.8 hPa Calm     84 % 0.0 mm 0.0 W/m2 CLR
05:28 10.0 °C 7.4 °C 1012.8 hPa Calm     84 % 0.0 mm 0.0 W/m2 CLR
05:29 10.0 °C 7.4 °C 1013.1 hPa Calm     84 % 0.0 mm 0.0 W/m2 CLR
05:33 10.0 °C 7.6 °C 1013.1 hPa Calm     85 % 0.0 mm 0.0 W/m2 CLR
05:37 10.0 °C 7.6 °C 1013.1 hPa Calm     85 % 0.0 mm 0.0 W/m2 CLR
05:38 9.4 °C 7.2 °C 1013.1 hPa Calm     86 % 0.0 mm 0.0 W/m2 CLR
05:43 9.4 °C 7.2 °C 1013.1 hPa Calm     86 % 0.0 mm 0.0 W/m2 CLR
05:48 9.4 °C 7.4 °C 1013.1 hPa Calm     87 % 0.0 mm 0.0 W/m2 CLR
05:53 9.4 °C 7.4 °C 1013.1 hPa Calm     87 % 0.0 mm 0.0 W/m2 CLR
05:58 9.4 °C 7.4 °C 1013.1 hPa Calm     87 % 0.0 mm 0.0 W/m2 CLR
06:04 9.4 °C 7.4 °C 1012.8 hPa Calm     87 % 0.0 mm 0.0 W/m2 CLR
06:09 9.4 °C 7.4 °C 1012.8 hPa Calm     87 % 0.0 mm 0.0 W/m2 CLR
06:14 8.9 °C 6.7 °C 1012.8 hPa Calm     86 % 0.0 mm 0.0 W/m2 CLR
06:19 8.9 °C 6.7 °C 1012.8 hPa Calm     86 % 0.0 mm 0.0 W/m2 CLR
06:24 8.9 °C 6.7 °C 1012.8 hPa Calm     86 % 0.0 mm 0.0 W/m2 CLR
06:29 8.9 °C 6.7 °C 1013.1 hPa Calm     86 % 0.0 mm 0.0 W/m2 CLR
06:34 8.9 °C 6.8 °C 1013.1 hPa Calm     87 % 0.0 mm 0.0 W/m2 CLR
06:39 8.3 °C 6.4 °C 1013.1 hPa Calm     88 % 0.0 mm 0.0 W/m2 CLR
06:44 8.3 °C 6.4 °C 1013.1 hPa Calm     88 % 0.0 mm 0.0 W/m2 CLR
06:49 8.3 °C 6.4 °C 1012.8 hPa Calm     88 % 0.0 mm 0.0 W/m2 CLR
06:54 8.3 °C 6.6 °C 1013.1 hPa South 9.3 km/h 9.3 km/h 89 % 0.0 mm 0.0 W/m2 CLR
06:59 8.3 °C 6.4 °C 1013.1 hPa SSE 9.3 km/h 9.3 km/h 88 % 0.0 mm 0.0 W/m2 CLR
07:04 8.3 °C 6.4 °C 1013.1 hPa South 5.6 km/h 5.6 km/h 88 % 0.0 mm 0.0 W/m2 CLR
07:09 8.3 °C 6.3 °C 1013.1 hPa Calm     87 % 0.0 mm 0.0 W/m2 CLR
07:14 8.9 °C 6.8 °C 1012.8 hPa Calm     87 % 0.0 mm 0.0 W/m2 CLR
07:24 8.9 °C 6.8 °C 1013.1 hPa Calm     87 % 0.0 mm 0.0 W/m2 CLR
07:29 8.9 °C 7.0 °C 1013.1 hPa Calm     88 % 0.0 mm 0.0 W/m2 CLR
07:34 8.9 °C 7.0 °C 1013.1 hPa SSE 9.7 km/h 9.7 km/h 88 % 0.0 mm 0.0 W/m2 CLR
07:39 9.4 °C 7.4 °C 1013.1 hPa SSE 9.7 km/h 9.7 km/h 87 % 0.0 mm 0.0 W/m2 CLR
07:44 9.4 °C 7.1 °C 1013.4 hPa South 9.3 km/h 9.3 km/h 85 % 0.0 mm 0.0 W/m2 CLR
07:49 9.4 °C 6.7 °C 1013.4 hPa Calm     83 % 0.0 mm 0.0 W/m2 CLR
07:54 9.4 °C 6.3 °C 1013.4 hPa Calm     81 % 0.0 mm 0.0 W/m2 CLR
07:59 9.4 °C 6.2 °C 1013.4 hPa SSW 5.6 km/h 5.6 km/h 80 % 0.0 mm 0.0 W/m2 CLR
08:04 9.4 °C 5.8 °C 1013.4 hPa SSW 11.3 km/h 11.3 km/h 78 % 0.0 mm 0.0 W/m2 CLR
08:09 9.4 °C 5.6 °C 1013.4 hPa South 11.1 km/h 11.1 km/h 77 % 0.0 mm 0.0 W/m2 OVC
08:14 9.4 °C 5.4 °C 1013.4 hPa SSE 13.0 km/h 13.0 km/h 76 % 0.0 mm 0.0 W/m2 OVC
08:19 10.0 °C 6.2 °C 1013.4 hPa Calm     77 % 0.0 mm 0.0 W/m2 OVC
08:24 10.0 °C 6.2 °C 1013.4 hPa South 7.4 km/h 7.4 km/h 77 % 0.0 mm 5.0 W/m2 OVC
08:29 10.0 °C 6.2 °C 1013.4 hPa South 7.4 km/h 7.4 km/h 77 % 0.0 mm 9.0 W/m2 BKN
08:34 10.0 °C 5.9 °C 1013.4 hPa SE 7.4 km/h 7.4 km/h 76 % 0.0 mm 11.0 W/m2 BKN
08:39 10.0 °C 6.7 °C 1013.4 hPa Calm     80 % 0.0 mm 12.0 W/m2 BKN
08:44 10.0 °C 6.9 °C 1013.4 hPa Calm     81 % 0.0 mm 16.0 W/m2 BKN
08:49 10.0 °C 6.7 °C 1013.8 hPa Calm     80 % 0.0 mm 18.0 W/m2 BKN
08:54 10.0 °C 6.5 °C 1013.8 hPa Calm     79 % 0.0 mm 19.0 W/m2 BKN
09:04 10.0 °C 6.7 °C 1013.8 hPa South 1.6 km/h 1.6 km/h 80 % 0.0 mm 39.0 W/m2 BKN
09:05 10.0 °C 6.7 °C 1013.8 hPa Calm   1.3 km/h 80 % 0.0 mm 39.0 W/m2 BKN
09:10 10.0 °C 6.5 °C 1014.1 hPa Calm     79 % 0.0 mm 47.0 W/m2 SCT
09:20 10.6 °C 6.7 °C 1014.1 hPa Calm   0.6 km/h 77 % 0.0 mm 62.0 W/m2 SCT
09:25 10.6 °C 6.3 °C 1014.1 hPa South 9.3 km/h 9.3 km/h 75 % 0.0 mm 62.0 W/m2 SCT
09:30 10.6 °C 6.3 °C 1014.4 hPa SSW 11.1 km/h 11.1 km/h 75 % 0.0 mm 56.0 W/m2 SCT
09:35 10.6 °C 6.5 °C 1014.4 hPa Calm     76 % 0.0 mm 47.0 W/m2 SCT
09:40 10.6 °C 6.9 °C 1014.4 hPa Calm     78 % 0.0 mm 33.0 W/m2 SCT
09:45 10.6 °C 7.1 °C 1014.4 hPa Calm     79 % 0.0 mm 56.0 W/m2 BKN
09:50 10.6 °C 7.1 °C 1014.4 hPa Calm     79 % 0.0 mm 83.0 W/m2 SCT
09:55 10.6 °C 7.1 °C 1014.4 hPa South 5.6 km/h 5.6 km/h 79 % 0.0 mm 113.0 W/m2 FEW
10:00 10.6 °C 6.9 °C 1014.4 hPa Calm     78 % 0.0 mm 114.0 W/m2 CLR
10:05 11.1 °C 7.6 °C 1014.8 hPa Calm     79 % 0.0 mm 127.0 W/m2 CLR
10:10 11.1 °C 7.8 °C 1014.4 hPa Calm     80 % 0.0 mm 123.0 W/m2 CLR
10:15 11.1 °C 7.6 °C 1014.4 hPa Calm     79 % 0.0 mm 113.0 W/m2 CLR
10:20 11.7 °C 8.2 °C 1014.4 hPa Calm     79 % 0.0 mm 114.0 W/m2 CLR
10:25 11.7 °C 7.8 °C 1014.4 hPa SW 5.6 km/h 5.6 km/h 77 % 0.0 mm 111.0 W/m2 CLR
10:30 11.7 °C 7.8 °C 1014.4 hPa Calm     77 % 0.0 mm 134.0 W/m2 CLR
10:35 11.7 °C 7.6 °C 1014.4 hPa SW 1.6 km/h 2.4 km/h 76 % 0.0 mm 142.0 W/m2 CLR
10:40 12.2 °C 8.3 °C 1014.4 hPa West 8.0 km/h 8.0 km/h 77 % 0.0 mm 148.0 W/m2 CLR
10:45 12.2 °C 8.1 °C 1014.4 hPa SW 7.4 km/h 7.4 km/h 76 % 0.0 mm 135.0 W/m2 CLR
10:50 12.2 °C 8.1 °C 1014.4 hPa SSW 4.8 km/h 4.8 km/h 76 % 0.0 mm 190.0 W/m2 CLR
10:55 12.8 °C 8.4 °C 1014.8 hPa Calm     75 % 0.0 mm 213.0 W/m2 CLR
11:00 12.8 °C 8.4 °C 1014.8 hPa Calm     75 % 0.0 mm 214.0 W/m2 CLR
11:05 12.8 °C 8.4 °C 1014.8 hPa Calm   0.6 km/h 75 % 0.0 mm 186.0 W/m2 CLR
11:10 13.3 °C 8.8 °C 1014.8 hPa Calm     74 % 0.0 mm 193.0 W/m2 CLR
11:15 13.3 °C 8.8 °C 1014.8 hPa SSW 5.6 km/h 5.6 km/h 74 % 0.0 mm 190.0 W/m2 CLR
11:20 13.3 °C 8.6 °C 1014.8 hPa SSW 9.3 km/h 9.3 km/h 73 % 0.0 mm 186.0 W/m2 CLR
11:25 13.3 °C 8.6 °C 1014.8 hPa Calm     73 % 0.0 mm 190.0 W/m2 CLR
11:30 12.8 °C 8.3 °C 1014.8 hPa SW 6.4 km/h 6.4 km/h 74 % 0.0 mm 221.0 W/m2 CLR
11:35 13.3 °C 8.8 °C 1014.8 hPa SW 14.5 km/h 14.5 km/h 74 % 0.0 mm 304.0 W/m2 CLR
11:40 13.3 °C 8.8 °C 1014.8 hPa SW 13.0 km/h 13.0 km/h 74 % 0.0 mm 318.0 W/m2 CLR
11:45 13.9 °C 9.1 °C 1014.8 hPa West 9.7 km/h 9.7 km/h 73 % 0.0 mm 422.0 W/m2 CLR
11:50 13.9 °C 8.9 °C 1014.8 hPa WSW 18.5 km/h 18.5 km/h 72 % 0.0 mm 327.0 W/m2 CLR
11:55 13.9 °C 8.9 °C 1014.4 hPa SW 14.8 km/h 14.8 km/h 72 % 0.0 mm 520.0 W/m2 CLR
12:00 14.4 °C 9.2 °C 1014.4 hPa SW 11.1 km/h 11.1 km/h 71 % 0.0 mm 501.0 W/m2 CLR
12:05 14.4 °C 9.4 °C 1014.4 hPa SW 13.0 km/h 13.0 km/h 72 % 0.0 mm 519.0 W/m2 CLR
12:10 14.4 °C 9.2 °C 1014.4 hPa SW 14.8 km/h 14.8 km/h 71 % 0.0 mm 211.0 W/m2 CLR
12:15 14.4 °C 9.7 °C 1014.4 hPa Calm     73 % 0.0 mm 578.0 W/m2 CLR
12:20 14.4 °C 9.2 °C 1014.4 hPa West 3.7 km/h   71 % 0.0 mm 422.0 W/m2 CLR
12:25 15.0 °C 9.8 °C 1014.4 hPa West 14.8 km/h 14.8 km/h 71 % 0.0 mm 612.0 W/m2 CLR
12:30 15.0 °C 9.8 °C 1014.4 hPa SW 3.7 km/h   71 % 0.0 mm 353.0 W/m2 CLR
12:35 15.0 °C 9.6 °C 1014.4 hPa WSW 9.7 km/h 9.7 km/h 70 % 0.0 mm 454.0 W/m2 CLR
12:40 15.0 °C 9.6 °C 1014.4 hPa Calm     70 % 0.0 mm 334.0 W/m2 CLR
12:45 15.0 °C 10.0 °C 1014.4 hPa Calm     72 % 0.0 mm 308.0 W/m2 CLR
12:50 15.0 °C 10.0 °C 1014.4 hPa West 7.4 km/h 7.4 km/h 72 % 0.0 mm 271.0 W/m2 CLR
12:55 15.0 °C 10.0 °C 1014.4 hPa West 11.1 km/h 11.1 km/h 72 % 0.0 mm 283.0 W/m2 CLR
13:00 15.0 °C 10.0 °C 1014.4 hPa SW 5.6 km/h   72 % 0.0 mm 322.0 W/m2 CLR
13:05 15.0 °C 10.0 °C 1014.4 hPa SW 14.8 km/h 14.8 km/h 72 % 0.0 mm 362.0 W/m2 CLR
13:10 15.0 °C 9.8 °C 1014.1 hPa WSW 9.7 km/h 9.7 km/h 71 % 0.0 mm 343.0 W/m2 CLR
13:15 15.6 °C 10.9 °C 1014.1 hPa WSW 18.5 km/h 18.5 km/h 74 % 0.0 mm 396.0 W/m2 CLR
13:20 15.0 °C 10.0 °C 1014.1 hPa WSW 7.4 km/h 7.4 km/h 72 % 0.0 mm 346.0 W/m2 CLR
13:25 15.6 °C 10.5 °C 1014.1 hPa SW 11.1 km/h 11.1 km/h 72 % 0.0 mm 394.0 W/m2 CLR
13:30 15.6 °C 10.5 °C 1014.1 hPa WSW 14.8 km/h 14.8 km/h 72 % 0.0 mm 457.0 W/m2 CLR
13:35 15.6 °C 10.5 °C 1014.1 hPa WSW 17.7 km/h 17.7 km/h 72 % 0.0 mm 257.0 W/m2 CLR
13:40 15.6 °C 10.3 °C 1014.1 hPa West 13.0 km/h 13.0 km/h 71 % 0.0 mm 244.0 W/m2 CLR
13:45 15.0 °C 10.0 °C 1014.1 hPa WSW 11.1 km/h 11.1 km/h 72 % 0.0 mm 246.0 W/m2 CLR
13:50 15.6 °C 10.5 °C 1014.1 hPa WNW 16.7 km/h 16.7 km/h 72 % 0.0 mm 253.0 W/m2 CLR
13:55 15.0 °C 10.2 °C 1013.8 hPa SW 14.8 km/h 14.8 km/h 73 % 0.0 mm 283.0 W/m2 CLR
14:00 15.6 °C 10.9 °C 1013.8 hPa West 18.5 km/h 18.5 km/h 74 % 0.0 mm 308.0 W/m2 CLR
14:06 15.6 °C 10.5 °C 1013.4 hPa West 9.3 km/h 9.3 km/h 72 % 0.0 mm 283.0 W/m2 CLR
14:11 15.0 °C 10.0 °C 1013.8 hPa WSW 13.0 km/h 13.0 km/h 72 % 0.0 mm 304.0 W/m2 CLR
14:16 15.6 °C 10.5 °C 1013.8 hPa SW 18.5 km/h 18.5 km/h 72 % 0.0 mm 251.0 W/m2 CLR
14:21 15.6 °C 10.3 °C 1013.8 hPa West 14.8 km/h 14.8 km/h 71 % 0.0 mm 185.0 W/m2 CLR
14:26 15.6 °C 10.7 °C 1013.8 hPa WSW 9.3 km/h 9.3 km/h 73 % 0.0 mm 192.0 W/m2 CLR
14:31 15.6 °C 10.7 °C 1013.4 hPa WSW 24.1 km/h 24.1 km/h 73 % 0.0 mm 192.0 W/m2 CLR
14:36 15.6 °C 10.7 °C 1013.4 hPa WSW 18.5 km/h 18.5 km/h 73 % 0.0 mm 195.0 W/m2 CLR
14:41 15.0 °C 10.2 °C 1013.4 hPa WSW 5.6 km/h 6.4 km/h 73 % 0.0 mm 207.0 W/m2 CLR
14:46 15.6 °C 10.3 °C 1013.1 hPa WSW 18.5 km/h 18.5 km/h 71 % 0.0 mm 251.0 W/m2 CLR
14:51 15.6 °C 10.3 °C 1013.1 hPa West 22.2 km/h 22.2 km/h 71 % 0.0 mm 234.0 W/m2 CLR
14:56 15.6 °C 10.3 °C 1013.1 hPa SW 18.5 km/h 18.5 km/h 71 % 0.0 mm 202.0 W/m2 CLR
15:01 15.6 °C 10.3 °C 1013.4 hPa WSW 16.7 km/h 16.7 km/h 71 % 0.0 mm 172.0 W/m2 CLR
15:06 15.6 °C 10.3 °C 1013.4 hPa WSW 18.5 km/h 18.5 km/h 71 % 0.0 mm 171.0 W/m2 CLR
15:11 15.6 °C 10.3 °C 1013.4 hPa SW 5.6 km/h   71 % 0.0 mm 172.0 W/m2 CLR
15:16 15.6 °C 10.3 °C 1013.4 hPa West 9.7 km/h 9.7 km/h 71 % 0.0 mm 160.0 W/m2 CLR
15:21 15.6 °C 10.3 °C 1013.4 hPa West 13.0 km/h 13.0 km/h 71 % 0.0 mm 149.0 W/m2 CLR
15:22 15.6 °C 10.3 °C 1013.4 hPa SW 5.6 km/h 5.6 km/h 71 % 0.0 mm 142.0 W/m2 CLR
15:27 15.6 °C 10.5 °C 1013.4 hPa West 5.6 km/h 5.6 km/h 72 % 0.0 mm 121.0 W/m2 CLR
15:32 15.0 °C 9.8 °C 1013.4 hPa West 11.1 km/h 11.1 km/h 71 % 0.0 mm 97.0 W/m2 CLR
15:37 15.0 °C 10.0 °C 1013.4 hPa Calm     72 % 0.0 mm 90.0 W/m2 CLR
15:42 15.0 °C 10.0 °C 1013.4 hPa WSW 13.0 km/h 13.0 km/h 72 % 0.0 mm 105.0 W/m2 CLR
15:47 15.0 °C 10.0 °C 1013.4 hPa SW 5.6 km/h 5.6 km/h 72 % 0.0 mm 121.0 W/m2 CLR
15:52 15.6 °C 10.5 °C 1013.1 hPa Calm     72 % 0.0 mm 155.0 W/m2 CLR
15:57 15.6 °C 10.5 °C 1013.1 hPa WSW 9.3 km/h 9.3 km/h 72 % 0.0 mm 207.0 W/m2 CLR
16:02 16.1 °C 10.8 °C 1013.1 hPa West 5.6 km/h   71 % 0.0 mm 258.0 W/m2 CLR
16:07 16.1 °C 10.8 °C 1013.1 hPa WSW 12.9 km/h 12.9 km/h 71 % 0.0 mm 276.0 W/m2 CLR
16:12 16.1 °C 10.6 °C 1013.1 hPa WSW 13.0 km/h 13.0 km/h 70 % 0.0 mm 313.0 W/m2 CLR
16:17 16.1 °C 10.8 °C 1013.1 hPa WSW 16.1 km/h 16.1 km/h 71 % 0.0 mm 229.0 W/m2 CLR
16:22 16.1 °C 10.4 °C 1013.1 hPa WSW 18.5 km/h 18.5 km/h 69 % 0.0 mm 239.0 W/m2 CLR
16:27 16.1 °C 10.4 °C 1013.1 hPa WSW 20.4 km/h 20.4 km/h 69 % 0.0 mm 220.0 W/m2 CLR
16:32 16.1 °C 10.4 °C 1012.8 hPa WSW 20.4 km/h 20.4 km/h 69 % 0.0 mm 218.0 W/m2 CLR
16:37 16.1 °C 10.4 °C 1012.8 hPa West 17.7 km/h 17.7 km/h 69 % 0.0 mm 216.0 W/m2 CLR
16:42 16.1 °C 10.2 °C 1012.8 hPa WSW 20.4 km/h 20.4 km/h 68 % 0.0 mm 260.0 W/m2 CLR
16:47 16.7 °C 10.7 °C 1012.8 hPa SW 18.5 km/h 18.5 km/h 68 % 0.0 mm 246.0 W/m2 CLR
16:48 16.7 °C 10.7 °C 1012.8 hPa SW 19.3 km/h 19.3 km/h 68 % 0.0 mm 239.0 W/m2 CLR
16:53 16.7 °C 10.3 °C 1012.8 hPa West 20.9 km/h 20.9 km/h 66 % 0.0 mm 236.0 W/m2 CLR
16:58 16.7 °C 10.5 °C 1012.8 hPa WSW 20.4 km/h 20.4 km/h 67 % 0.0 mm 234.0 W/m2 CLR
17:03 16.7 °C 10.5 °C 1012.8 hPa WSW 6.4 km/h 6.4 km/h 67 % 0.0 mm 218.0 W/m2 CLR
17:08 16.7 °C 10.7 °C 1012.4 hPa SW 7.4 km/h 7.4 km/h 68 % 0.0 mm 141.0 W/m2 CLR
17:13 16.1 °C 9.8 °C 1012.4 hPa SSW 22.2 km/h 22.2 km/h 66 % 0.0 mm 100.0 W/m2 CLR
17:18 16.1 °C 9.8 °C 1012.4 hPa SW 22.2 km/h 22.2 km/h 66 % 0.0 mm 102.0 W/m2 CLR
17:23 16.1 °C 10.0 °C 1012.4 hPa SW 18.5 km/h 18.5 km/h 67 % 0.0 mm 105.0 W/m2 CLR
17:28 16.1 °C 10.2 °C 1012.4 hPa West 25.9 km/h 25.9 km/h 68 % 0.0 mm 98.0 W/m2 CLR
17:34 16.1 °C 10.2 °C 1012.8 hPa SW 22.2 km/h 22.2 km/h 68 % 0.0 mm 90.0 W/m2 CLR
17:39 16.1 °C 10.2 °C 1012.4 hPa WSW 22.2 km/h 22.2 km/h 68 % 0.0 mm 74.0 W/m2 CLR
17:44 16.1 °C 10.0 °C 1012.4 hPa SW 16.7 km/h 16.7 km/h 67 % 0.0 mm 84.0 W/m2 FEW
17:49 16.1 °C 10.0 °C 1012.4 hPa SW 14.8 km/h 14.8 km/h 67 % 0.0 mm 63.0 W/m2 FEW
17:54 16.1 °C 9.8 °C 1012.4 hPa WSW 22.2 km/h 22.2 km/h 66 % 0.0 mm 46.0 W/m2 FEW
17:59 16.1 °C 9.8 °C 1012.4 hPa WSW 18.5 km/h 18.5 km/h 66 % 0.0 mm 47.0 W/m2 SCT
18:04 16.1 °C 10.0 °C 1012.8 hPa West 13.0 km/h 13.0 km/h 67 % 0.0 mm 42.0 W/m2 SCT
18:09 16.1 °C 10.0 °C 1012.8 hPa WSW 14.8 km/h 14.8 km/h 67 % 0.0 mm 35.0 W/m2 BKN
18:14 16.1 °C 10.0 °C 1012.8 hPa Calm     67 % 0.0 mm 32.0 W/m2 BKN
18:19 16.1 °C 9.8 °C 1012.8 hPa SSW 14.8 km/h 14.8 km/h 66 % 0.0 mm 35.0 W/m2 BKN
18:24 16.1 °C 10.0 °C 1013.1 hPa WSW 18.5 km/h 18.5 km/h 67 % 0.0 mm 35.0 W/m2 BKN
18:29 16.1 °C 9.8 °C 1012.8 hPa WSW 16.7 km/h 16.7 km/h 66 % 0.0 mm 42.0 W/m2 BKN
18:34 16.1 °C 10.0 °C 1013.1 hPa SW 16.1 km/h 16.1 km/h 67 % 0.0 mm 46.0 W/m2 SCT
18:39 16.1 °C 10.0 °C 1013.1 hPa WSW 18.5 km/h 18.5 km/h 67 % 0.0 mm 40.0 W/m2 BKN
18:44 16.1 °C 9.8 °C 1013.1 hPa SW 16.7 km/h 16.7 km/h 66 % 0.0 mm 26.0 W/m2 BKN
18:49 16.1 °C 9.8 °C 1013.1 hPa SW 16.7 km/h 16.7 km/h 66 % 0.0 mm 23.0 W/m2 BKN
18:54 16.1 °C 9.8 °C 1013.1 hPa SW 13.0 km/h 13.0 km/h 66 % 0.0 mm 18.0 W/m2 BKN
18:59 16.1 °C 9.5 °C 1013.1 hPa WSW 18.5 km/h 18.5 km/h 65 % 0.0 mm 14.0 W/m2 BKN
19:04 16.1 °C 9.8 °C 1013.1 hPa WSW 18.5 km/h 18.5 km/h 66 % 0.0 mm 11.0 W/m2 BKN
19:09 16.1 °C 9.8 °C 1013.1 hPa WSW 18.5 km/h 18.5 km/h 66 % 0.0 mm 5.0 W/m2 OVC
19:14 16.1 °C 9.8 °C 1013.4 hPa WSW 18.5 km/h 18.5 km/h 66 % 0.0 mm 0.0 W/m2 OVC
19:24 16.1 °C 9.8 °C 1013.4 hPa WSW 16.7 km/h 16.7 km/h 66 % 0.0 mm 0.0 W/m2 CLR
19:29 15.6 °C 9.2 °C 1013.4 hPa WSW 18.5 km/h 18.5 km/h 66 % 0.0 mm 0.0 W/m2 CLR
19:34 16.1 °C 9.5 °C 1013.8 hPa West 14.8 km/h 14.8 km/h 65 % 0.0 mm 0.0 W/m2 CLR
19:39 15.6 °C 9.0 °C 1013.8 hPa SW 18.5 km/h 18.5 km/h 65 % 0.0 mm 0.0 W/m2 CLR
19:40 15.6 °C 9.0 °C 1013.8 hPa WSW 18.5 km/h 18.5 km/h 65 % 0.0 mm 0.0 W/m2 CLR
19:45 15.6 °C 9.2 °C 1013.8 hPa WSW 18.5 km/h 18.5 km/h 66 % 0.0 mm 0.0 W/m2 CLR
19:50 15.6 °C 9.2 °C 1013.8 hPa West 18.5 km/h 18.5 km/h 66 % 0.0 mm 0.0 W/m2 CLR
19:55 15.6 °C 9.4 °C 1013.8 hPa West 1.9 km/h 1.9 km/h 67 % 0.0 mm 0.0 W/m2 CLR
20:00 15.6 °C 9.7 °C 1013.8 hPa SW 16.7 km/h 16.7 km/h 68 % 0.0 mm 0.0 W/m2 CLR
20:05 15.6 °C 9.7 °C 1013.8 hPa WSW 18.5 km/h 18.5 km/h 68 % 0.0 mm 0.0 W/m2 CLR
20:10 15.6 °C 9.9 °C 1013.8 hPa WSW 24.1 km/h 24.1 km/h 69 % 0.0 mm 0.0 W/m2 CLR
20:15 15.6 °C 9.7 °C 1014.1 hPa WSW 20.9 km/h 20.9 km/h 68 % 0.0 mm 0.0 W/m2 CLR
20:20 15.6 °C 9.7 °C 1014.1 hPa WSW 18.5 km/h 18.5 km/h 68 % 0.0 mm 0.0 W/m2 CLR
20:25 15.6 °C 9.7 °C 1014.1 hPa WSW 20.4 km/h 20.4 km/h 68 % 0.0 mm 0.0 W/m2 CLR
20:30 15.6 °C 9.9 °C 1014.1 hPa SW 14.8 km/h 14.8 km/h 69 % 0.0 mm 0.0 W/m2 CLR
20:35 15.6 °C 9.7 °C 1014.1 hPa WSW 22.2 km/h 22.2 km/h 68 % 0.0 mm 0.0 W/m2 CLR
20:40 15.6 °C 9.7 °C 1014.1 hPa WSW 20.4 km/h 20.4 km/h 68 % 0.0 mm 0.0 W/m2 CLR
20:45 15.6 °C 9.9 °C 1014.1 hPa SW 18.5 km/h 18.5 km/h 69 % 0.0 mm 0.0 W/m2 CLR
20:50 15.6 °C 9.9 °C 1014.1 hPa SW 18.5 km/h 18.5 km/h 69 % 0.0 mm 0.0 W/m2 CLR
20:55 15.6 °C 9.9 °C 1014.1 hPa SW 22.5 km/h 22.5 km/h 69 % 0.0 mm 0.0 W/m2 CLR
21:00 15.6 °C 9.9 °C 1014.1 hPa WSW 18.5 km/h 18.5 km/h 69 % 0.0 mm 0.0 W/m2 CLR
21:05 15.6 °C 9.9 °C 1014.1 hPa SW 18.5 km/h 18.5 km/h 69 % 0.0 mm 0.0 W/m2 CLR
21:10 15.6 °C 9.9 °C 1014.1 hPa SW 20.4 km/h 20.4 km/h 69 % 0.0 mm 0.0 W/m2 CLR
21:15 15.6 °C 9.9 °C 1014.1 hPa WSW 18.5 km/h 18.5 km/h 69 % 0.0 mm 0.0 W/m2 CLR
21:20 15.6 °C 10.1 °C 1014.1 hPa WSW 27.8 km/h 27.8 km/h 70 % 0.0 mm 0.0 W/m2 CLR
21:25 15.6 °C 10.1 °C 1014.1 hPa SW 24.1 km/h 24.1 km/h 70 % 0.0 mm 0.0 W/m2 CLR
21:30 15.6 °C 10.1 °C 1014.1 hPa WSW 24.1 km/h 24.1 km/h 70 % 0.0 mm 0.0 W/m2 CLR
21:35 15.6 °C 10.1 °C 1014.1 hPa SSW 22.2 km/h 22.2 km/h 70 % 0.0 mm 0.0 W/m2 CLR
21:40 15.6 °C 10.3 °C 1014.4 hPa SW 24.1 km/h 24.1 km/h 71 % 0.0 mm 0.0 W/m2 CLR
21:45 15.6 °C 10.3 °C 1014.4 hPa WSW 25.7 km/h 25.7 km/h 71 % 0.0 mm 0.0 W/m2 CLR
21:50 15.6 °C 10.3 °C 1014.4 hPa WSW 25.9 km/h 25.9 km/h 71 % 0.0 mm 0.0 W/m2 CLR
21:55 15.6 °C 10.3 °C 1014.4 hPa SW 25.9 km/h 25.9 km/h 71 % 0.0 mm 0.0 W/m2 CLR
22:00 15.6 °C 10.3 °C 1014.4 hPa SW 25.9 km/h 25.9 km/h 71 % 0.0 mm 0.0 W/m2 CLR
22:05 15.6 °C 10.3 °C 1014.4 hPa SSW 25.9 km/h 25.9 km/h 71 % 0.0 mm 0.0 W/m2 CLR
22:10 15.6 °C 10.5 °C 1014.4 hPa SSW 18.5 km/h 18.5 km/h 72 % 0.0 mm 0.0 W/m2 CLR
22:15 15.6 °C 10.5 °C 1014.8 hPa SSW 20.9 km/h 20.9 km/h 72 % 0.0 mm 0.0 W/m2 CLR
22:20 15.6 °C 10.5 °C 1014.8 hPa SW 18.5 km/h 18.5 km/h 72 % 0.0 mm 0.0 W/m2 CLR
22:25 15.6 °C 10.5 °C 1014.8 hPa SSW 22.2 km/h 22.2 km/h 72 % 0.0 mm 0.0 W/m2 CLR
22:30 15.6 °C 10.5 °C 1014.8 hPa SW 20.9 km/h 20.9 km/h 72 % 0.0 mm 0.0 W/m2 CLR
22:35 15.6 °C 10.5 °C 1014.8 hPa SW 19.3 km/h 19.3 km/h 72 % 0.0 mm 0.0 W/m2 CLR
22:40 15.6 °C 10.5 °C 1015.1 hPa SW 13.0 km/h 13.0 km/h 72 % 0.0 mm 0.0 W/m2 CLR
22:45 15.6 °C 10.5 °C 1015.1 hPa SW 17.7 km/h 17.7 km/h 72 % 0.0 mm 0.0 W/m2 CLR
22:50 15.6 °C 10.5 °C 1015.1 hPa SW 16.7 km/h 16.7 km/h 72 % 0.0 mm 0.0 W/m2 CLR
22:55 15.6 °C 10.5 °C 1015.5 hPa SW 14.8 km/h 14.8 km/h 72 % 0.0 mm 0.0 W/m2 CLR
23:00 15.6 °C 10.5 °C 1015.5 hPa SSW 16.7 km/h 16.7 km/h 72 % 0.0 mm 0.0 W/m2 CLR
23:05 15.6 °C 10.5 °C 1015.5 hPa SSW 18.5 km/h 18.5 km/h 72 % 0.0 mm 0.0 W/m2 CLR
23:10 15.6 °C 10.3 °C 1015.5 hPa SSW 14.8 km/h 14.8 km/h 71 % 0.0 mm 0.0 W/m2 CLR
23:15 15.6 °C 10.3 °C 1015.5 hPa SSW 11.1 km/h 11.1 km/h 71 % 0.0 mm 0.0 W/m2 CLR
23:20 15.6 °C 10.1 °C 1015.5 hPa SW 16.7 km/h 16.7 km/h 70 % 0.0 mm 0.0 W/m2 CLR
23:25 15.6 °C 10.3 °C 1015.5 hPa SW 12.9 km/h 12.9 km/h 71 % 0.0 mm 0.0 W/m2 CLR
23:30 15.6 °C 10.1 °C 1015.8 hPa SW 18.5 km/h 18.5 km/h 70 % 0.0 mm 0.0 W/m2 CLR
23:35 15.6 °C 10.1 °C 1015.5 hPa SW 16.7 km/h 16.7 km/h 70 % 0.0 mm 0.0 W/m2 CLR
23:40 15.6 °C 10.1 °C 1015.8 hPa SSW 13.0 km/h 13.0 km/h 70 % 0.0 mm 0.0 W/m2 CLR
23:45 15.6 °C 9.9 °C 1015.8 hPa SW 17.7 km/h 17.7 km/h 69 % 0.0 mm 0.0 W/m2 CLR
23:50 15.6 °C 9.9 °C 1015.8 hPa WSW 18.5 km/h 18.5 km/h 69 % 0.0 mm 0.0 W/m2 CLR
23:55 15.6 °C 9.9 °C 1015.8 hPa SSW 18.5 km/h 18.5 km/h 69 % 0.0 mm 0.0 W/m2 CLR
Lo Temps de Massalio
Compliments of Weather Underground - 1.25 mb